Time;durP1;ratioP1;P1;durP2;ratioP2;P2;SDS_P1;SDS_P2;PMS_P1;PMS_P2;Temp;Humidity;BMP_temperature;BMP_pressure;BME280_temperature;BME280_humidity;BME280_pressure;Samples;Min_cycle;Max_cycle;Signal;HPM_P1;HPM_P2
2022/04/18 00:02:10;;;;;;;;;;;9.30;22.90;;;;;;5005248;28;19933;-76
2022/04/18 00:04:37;;;;;;;;;;;9.20;24.70;;;;;;5038049;28;20375;-78
2022/04/18 00:07:05;;;;;;;;;;;8.90;25.60;;;;;;5041254;28;19948;-76
2022/04/18 00:09:33;;;;;;;;;;;8.70;26.60;;;;;;4986531;28;19932;-77
2022/04/18 00:12:00;;;;;;;;;;;8.50;27.80;;;;;;4972472;28;19933;-77
2022/04/18 00:14:27;;;;;;;;;;;8.30;28.20;;;;;;5008972;28;19932;-77
2022/04/18 00:16:55;;;;;;;;;;;8.30;28.20;;;;;;4981145;28;20477;-77
2022/04/18 00:19:21;;;;;;;;;;;8.30;28.50;;;;;;4990169;28;19926;-78
2022/04/18 00:21:48;;;;;;;;;;;8.20;28.50;;;;;;4974796;28;19973;-77
2022/04/18 00:24:17;;;;;;;;;;;8.20;28.10;;;;;;4988281;28;19940;-76
2022/04/18 00:26:44;;;;;;;;;;;8.20;28.20;;;;;;4969665;28;19926;-76
2022/04/18 00:29:11;;;;;;;;;;;8.20;28.00;;;;;;4983793;28;19930;-76
2022/04/18 00:31:38;;;;;;;;;;;8.20;28.00;;;;;;4988122;28;20308;-76
2022/04/18 00:34:06;;;;;;;;;;;8.10;28.80;;;;;;5007051;28;19926;-77
2022/04/18 00:36:32;;;;;;;;;;;8.10;28.70;;;;;;4990165;28;20373;-77
2022/04/18 00:38:59;;;;;;;;;;;8.00;28.60;;;;;;4988681;28;19934;-77
2022/04/18 00:41:26;;;;;;;;;;;8.10;29.20;;;;;;5051829;28;19926;-76
2022/04/18 00:43:53;;;;;;;;;;;8.10;30.00;;;;;;4993825;28;20005;-76
2022/04/18 00:46:20;;;;;;;;;;;8.00;30.70;;;;;;4994164;28;19932;-76
2022/04/18 00:48:47;;;;;;;;;;;7.80;31.50;;;;;;4974287;28;20009;-76
2022/04/18 00:51:16;;;;;;;;;;;7.70;32.50;;;;;;5039337;28;19926;-76
2022/04/18 00:53:43;;;;;;;;;;;7.60;33.00;;;;;;4995656;28;19926;-76
2022/04/18 00:56:12;;;;;;;;;;;7.50;33.40;;;;;;4990950;28;20321;-77
2022/04/18 00:58:39;;;;;;;;;;;7.50;33.80;;;;;;5015802;28;19952;-75
2022/04/18 01:01:05;;;;;;;;;;;7.60;34.00;;;;;;5019989;28;19934;-74
2022/04/18 01:03:32;;;;;;;;;;;7.60;33.80;;;;;;4995393;28;19969;-75
2022/04/18 01:05:59;;;;;;;;;;;7.60;34.20;;;;;;4975763;28;20017;-75
2022/04/18 01:08:28;;;;;;;;;;;7.50;34.70;;;;;;4983105;28;20290;-75
2022/04/18 01:10:55;;;;;;;;;;;7.30;35.20;;;;;;4985698;28;20457;-75
2022/04/18 01:13:22;;;;;;;;;;;7.10;35.70;;;;;;5001214;28;19948;-76
2022/04/18 01:15:51;;;;;;;;;;;7.10;36.10;;;;;;4983129;28;20248;-75
2022/04/18 01:18:18;;;;;;;;;;;7.10;36.50;;;;;;4990377;28;19932;-75
2022/04/18 01:20:46;;;;;;;;;;;7.00;37.20;;;;;;5006375;28;20388;-75
2022/04/18 01:23:12;;;;;;;;;;;7.10;37.80;;;;;;4982792;28;20411;-75
2022/04/18 01:31:08;;;;;;;;;;;7.00;38.90;;;;;;4999355;28;20397;-76
2022/04/18 01:33:34;;;;;;;;;;;6.80;40.00;;;;;;4990973;28;19932;-76
2022/04/18 01:36:02;;;;;;;;;;;6.60;41.50;;;;;;4979190;28;19924;-78
2022/04/18 01:38:29;;;;;;;;;;;6.60;43.20;;;;;;4993733;28;20330;-76
2022/04/18 01:40:56;;;;;;;;;;;6.50;43.70;;;;;;5000115;28;19930;-76
2022/04/18 01:43:23;;;;;;;;;;;6.50;44.40;;;;;;4994970;28;20185;-77
2022/04/18 01:45:50;;;;;;;;;;;6.50;44.70;;;;;;4989885;28;19930;-76
2022/04/18 01:48:18;;;;;;;;;;;6.50;45.10;;;;;;4981721;28;19953;-76
2022/04/18 01:50:45;;;;;;;;;;;6.60;45.00;;;;;;4986803;28;20810;-75
2022/04/18 01:53:13;;;;;;;;;;;6.60;44.50;;;;;;5001395;28;20384;-76
2022/04/18 01:55:40;;;;;;;;;;;6.60;44.00;;;;;;4975251;28;20288;-76
2022/04/18 01:58:08;;;;;;;;;;;6.60;44.00;;;;;;4980490;28;19926;-76
2022/04/18 02:00:35;;;;;;;;;;;6.60;44.50;;;;;;4977560;28;19936;-75
2022/04/18 02:03:02;;;;;;;;;;;6.40;45.30;;;;;;4988231;28;19925;-76
2022/04/18 02:05:28;;;;;;;;;;;6.30;46.20;;;;;;4986614;28;19926;-76
2022/04/18 02:07:55;;;;;;;;;;;6.20;46.70;;;;;;4989208;28;19926;-75
2022/04/18 02:10:23;;;;;;;;;;;6.10;47.70;;;;;;4989942;28;19926;-75
2022/04/18 02:12:50;;;;;;;;;;;6.10;48.70;;;;;;5027387;28;19925;-76
2022/04/18 02:15:17;;;;;;;;;;;6.10;49.30;;;;;;4983423;28;20399;-76
2022/04/18 02:17:44;;;;;;;;;;;6.10;49.70;;;;;;4977083;28;19930;-76
2022/04/18 02:20:11;;;;;;;;;;;6.10;49.90;;;;;;4986917;28;19933;-77
2022/04/18 02:22:37;;;;;;;;;;;6.20;49.90;;;;;;5032058;28;19924;-76
2022/04/18 02:25:05;;;;;;;;;;;6.20;50.20;;;;;;5018085;28;20371;-76
2022/04/18 02:27:33;;;;;;;;;;;6.20;50.50;;;;;;4988587;28;19932;-76
2022/04/18 02:30:03;;;;;;;;;;;6.20;50.90;;;;;;4984199;28;19934;-77
2022/04/18 02:35:18;;;;;;;;;;;6.10;51.90;;;;;;5011439;28;20363;-76
2022/04/18 02:37:44;;;;;;;;;;;6.10;52.50;;;;;;4991252;28;19932;-76
2022/04/18 02:40:12;;;;;;;;;;;6.10;53.20;;;;;;4990808;28;19932;-76
2022/04/18 02:42:42;;;;;;;;;;;6.20;53.80;;;;;;5020228;28;20008;-76
2022/04/18 02:45:10;;;;;;;;;;;6.10;53.70;;;;;;4973775;28;20009;-76
2022/04/18 02:47:37;;;;;;;;;;;5.90;53.80;;;;;;4982156;28;19933;-75
2022/04/18 02:50:04;;;;;;;;;;;5.80;54.10;;;;;;5017563;28;20016;-76
2022/04/18 02:52:30;;;;;;;;;;;5.70;54.50;;;;;;5009406;28;20354;-75
2022/04/18 02:54:57;;;;;;;;;;;5.70;55.30;;;;;;4978440;28;19926;-76
2022/04/18 02:57:24;;;;;;;;;;;5.60;56.10;;;;;;4978838;28;20649;-75
2022/04/18 02:59:52;;;;;;;;;;;5.70;56.00;;;;;;4989678;28;20278;-77
2022/04/18 03:02:18;;;;;;;;;;;5.70;56.00;;;;;;4992999;28;19934;-76
2022/04/18 03:04:45;;;;;;;;;;;5.90;54.90;;;;;;4980012;28;19932;-77
2022/04/18 03:07:12;;;;;;;;;;;6.10;52.70;;;;;;4994729;28;19930;-77
2022/04/18 03:09:38;;;;;;;;;;;6.20;51.50;;;;;;4987418;28;19926;-77
2022/04/18 03:12:06;;;;;;;;;;;6.30;51.00;;;;;;5017892;28;19924;-77
2022/04/18 03:14:33;;;;;;;;;;;6.30;50.40;;;;;;4983445;28;19932;-77
2022/04/18 03:17:01;;;;;;;;;;;6.30;49.80;;;;;;5037442;28;20466;-78
2022/04/18 03:19:30;;;;;;;;;;;6.30;49.50;;;;;;5018489;28;19926;-77
2022/04/18 03:21:59;;;;;;;;;;;6.30;49.40;;;;;;4992952;28;19933;-77
2022/04/18 03:24:25;;;;;;;;;;;6.30;49.10;;;;;;5016534;28;19926;-76
2022/04/18 03:26:52;;;;;;;;;;;6.30;48.90;;;;;;5058600;28;20017;-77
2022/04/18 03:29:19;;;;;;;;;;;6.30;48.90;;;;;;4986084;28;20483;-78
2022/04/18 03:31:49;;;;;;;;;;;6.30;49.10;;;;;;4996611;28;20300;-78
2022/04/18 03:34:20;;;;;;;;;;;6.20;49.10;;;;;;4989671;28;19930;-77
2022/04/18 03:42:11;;;;;;;;;;;6.10;49.90;;;;;;5012544;28;19933;-77
2022/04/18 03:44:42;;;;;;;;;;;6.00;50.40;;;;;;4987164;28;19944;-75
2022/04/18 03:47:09;;;;;;;;;;;6.00;50.50;;;;;;4989826;28;19968;-76
2022/04/18 03:49:37;;;;;;;;;;;6.00;50.30;;;;;;4987249;28;20103;-76
2022/04/18 03:52:04;;;;;;;;;;;5.90;50.50;;;;;;5010342;28;19932;-75
2022/04/18 03:54:31;;;;;;;;;;;6.00;51.00;;;;;;4994072;28;20391;-76
2022/04/18 03:56:58;;;;;;;;;;;6.00;51.00;;;;;;5011820;28;20419;-76
2022/04/18 03:59:24;;;;;;;;;;;5.90;51.10;;;;;;5027468;28;20020;-77
2022/04/18 04:01:51;;;;;;;;;;;6.10;50.60;;;;;;5020332;28;19926;-77
2022/04/18 04:04:18;;;;;;;;;;;6.10;50.10;;;;;;5003490;28;20399;-77
2022/04/18 04:06:46;;;;;;;;;;;6.10;49.80;;;;;;5035430;28;20025;-77
2022/04/18 04:09:13;;;;;;;;;;;6.10;50.20;;;;;;5003762;28;20222;-76
2022/04/18 04:11:39;;;;;;;;;;;6.00;51.10;;;;;;5032419;28;19946;-77
2022/04/18 04:14:06;;;;;;;;;;;5.90;51.60;;;;;;5005444;28;19925;-77
2022/04/18 04:16:33;;;;;;;;;;;5.80;51.80;;;;;;5048253;28;19930;-77
2022/04/18 04:18:59;;;;;;;;;;;5.80;52.10;;;;;;4995901;28;19926;-78
2022/04/18 04:21:26;;;;;;;;;;;5.70;52.50;;;;;;5019491;28;19926;-77
2022/04/18 04:23:54;;;;;;;;;;;5.60;53.70;;;;;;4985202;28;19932;-78
2022/04/18 04:26:24;;;;;;;;;;;5.50;54.70;;;;;;5083363;28;19930;-77
2022/04/18 04:28:51;;;;;;;;;;;5.40;55.20;;;;;;5006417;28;19924;-77
2022/04/18 04:31:17;;;;;;;;;;;5.40;55.40;;;;;;4995660;28;19945;-78
2022/04/18 04:33:44;;;;;;;;;;;5.30;55.60;;;;;;5030669;28;20038;-78
2022/04/18 04:36:30;;;;;;;;;;;5.30;56.20;;;;;;5023627;28;19961;-80
2022/04/18 04:38:58;;;;;;;;;;;5.20;56.60;;;;;;5016789;28;19924;-79
2022/04/18 04:41:25;;;;;;;;;;;5.30;56.90;;;;;;4993098;28;20446;-78
2022/04/18 04:43:51;;;;;;;;;;;5.40;56.20;;;;;;5005498;28;19933;-76
2022/04/18 04:46:18;;;;;;;;;;;5.40;55.70;;;;;;5048479;28;19923;-77
2022/04/18 04:48:45;;;;;;;;;;;5.40;55.50;;;;;;5047403;28;20069;-76
2022/04/18 04:51:11;;;;;;;;;;;5.50;55.60;;;;;;5035161;28;20395;-77
2022/04/18 04:53:38;;;;;;;;;;;5.50;55.80;;;;;;5015957;28;19931;-79
2022/04/18 04:56:06;;;;;;;;;;;5.50;56.70;;;;;;5001124;28;20004;-79
2022/04/18 04:58:33;;;;;;;;;;;5.40;57.20;;;;;;4990627;28;19930;-78
2022/04/18 05:00:59;;;;;;;;;;;5.40;57.40;;;;;;4997814;28;19947;-78
2022/04/18 05:03:26;;;;;;;;;;;5.40;57.30;;;;;;5004510;28;19940;-78
2022/04/18 05:05:53;;;;;;;;;;;5.40;57.70;;;;;;5027681;28;19937;-78
2022/04/18 05:08:20;;;;;;;;;;;5.40;57.50;;;;;;4996581;28;19926;-77
2022/04/18 05:10:46;;;;;;;;;;;5.50;58.00;;;;;;5005497;28;19934;-78
2022/04/18 05:13:15;;;;;;;;;;;5.60;57.60;;;;;;4986672;28;19983;-78
2022/04/18 05:15:41;;;;;;;;;;;5.60;57.60;;;;;;5014473;28;19932;-77
2022/04/18 05:18:08;;;;;;;;;;;5.80;57.60;;;;;;5009126;28;19926;-75
2022/04/18 05:20:35;;;;;;;;;;;5.90;57.00;;;;;;5021625;28;19934;-76
2022/04/18 05:23:02;;;;;;;;;;;6.10;56.60;;;;;;5008745;28;19938;-77
2022/04/18 05:25:30;;;;;;;;;;;6.20;55.30;;;;;;5031449;28;19925;-78
2022/04/18 05:27:59;;;;;;;;;;;6.30;55.00;;;;;;5005702;28;19930;-77
2022/04/18 05:30:31;;;;;;;;;;;6.50;54.20;;;;;;5039644;28;19937;-78
2022/04/18 05:32:59;;;;;;;;;;;6.80;52.90;;;;;;5017452;28;20360;-77
2022/04/18 05:35:25;;;;;;;;;;;7.00;50.70;;;;;;5037874;28;19936;-77
2022/04/18 05:37:52;;;;;;;;;;;7.10;49.50;;;;;;5042089;28;19924;-77
2022/04/18 05:40:19;;;;;;;;;;;7.30;48.50;;;;;;5017035;28;19926;-77
2022/04/18 05:42:46;;;;;;;;;;;7.40;47.80;;;;;;5010357;28;19924;-77
2022/04/18 05:45:12;;;;;;;;;;;7.60;47.40;;;;;;5036489;28;19969;-77
2022/04/18 05:47:40;;;;;;;;;;;7.80;46.10;;;;;;5001898;28;20021;-76
2022/04/18 05:50:07;;;;;;;;;;;7.90;45.40;;;;;;4991256;28;19936;-77
2022/04/18 05:52:34;;;;;;;;;;;8.00;46.50;;;;;;5024004;28;19946;-77
2022/04/18 05:55:01;;;;;;;;;;;8.10;45.40;;;;;;5034423;28;19979;-77
2022/04/18 05:57:27;;;;;;;;;;;8.30;43.20;;;;;;5060467;28;19932;-77
2022/04/18 05:59:54;;;;;;;;;;;8.60;42.80;;;;;;5034625;28;19932;-78
2022/04/18 06:02:21;;;;;;;;;;;8.70;40.90;;;;;;5014011;28;19980;-79
2022/04/18 06:04:50;;;;;;;;;;;8.90;39.90;;;;;;5031048;28;20029;-78
2022/04/18 06:07:17;;;;;;;;;;;8.90;41.30;;;;;;4998045;28;19933;-78
2022/04/18 06:09:43;;;;;;;;;;;9.00;40.10;;;;;;4988327;28;20289;-77
2022/04/18 06:12:10;;;;;;;;;;;9.20;38.30;;;;;;5006412;28;19934;-77
2022/04/18 06:14:37;;;;;;;;;;;9.20;40.00;;;;;;5015354;28;20377;-77
2022/04/18 06:17:04;;;;;;;;;;;9.10;39.00;;;;;;5029546;28;19931;-77
2022/04/18 06:19:33;;;;;;;;;;;9.20;40.40;;;;;;4984347;28;20339;-79
2022/04/18 06:22:01;;;;;;;;;;;9.40;39.00;;;;;;4997037;28;19930;-77
2022/04/18 06:24:28;;;;;;;;;;;9.30;39.60;;;;;;5035824;28;19924;-78
2022/04/18 06:26:54;;;;;;;;;;;9.40;39.70;;;;;;5063033;28;20197;-76
2022/04/18 06:29:24;;;;;;;;;;;9.40;39.60;;;;;;4999857;28;19933;-77
2022/04/18 06:31:53;;;;;;;;;;;9.30;39.70;;;;;;5050362;28;19930;-78
2022/04/18 06:34:20;;;;;;;;;;;9.50;39.40;;;;;;5011840;28;19940;-78
2022/04/18 06:36:47;;;;;;;;;;;9.70;40.30;;;;;;5010353;28;19933;-78
2022/04/18 06:39:15;;;;;;;;;;;10.00;39.90;;;;;;4985135;28;19949;-80
2022/04/18 06:41:41;;;;;;;;;;;10.00;38.30;;;;;;5014194;28;19928;-77
2022/04/18 06:44:08;;;;;;;;;;;10.20;38.70;;;;;;5010455;28;19995;-77
2022/04/18 06:46:35;;;;;;;;;;;10.50;38.20;;;;;;4996503;28;20451;-81
2022/04/18 06:49:01;;;;;;;;;;;10.50;37.50;;;;;;5037751;28;19924;-73
2022/04/18 06:51:28;;;;;;;;;;;10.40;37.30;;;;;;5028056;28;19924;-75
2022/04/18 06:53:55;;;;;;;;;;;10.50;36.60;;;;;;5008295;28;19940;-76
2022/04/18 06:59:08;;;;;;;;;;;10.60;36.20;;;;;;4975035;28;20077;-74
2022/04/18 07:01:35;;;;;;;;;;;10.70;36.40;;;;;;4977538;28;19933;-72
2022/04/18 07:04:02;;;;;;;;;;;10.80;35.80;;;;;;4980856;28;20012;-72
2022/04/18 07:06:28;;;;;;;;;;;11.00;36.00;;;;;;4981615;28;19987;-75
2022/04/18 07:08:55;;;;;;;;;;;11.10;35.70;;;;;;4969012;28;20379;-83
2022/04/18 07:11:23;;;;;;;;;;;11.30;32.80;;;;;;4973681;28;19937;-76
2022/04/18 07:13:50;;;;;;;;;;;11.60;31.90;;;;;;4973125;28;19949;-75
2022/04/18 07:16:17;;;;;;;;;;;12.40;30.40;;;;;;4994653;28;20385;-79
2022/04/18 07:18:44;;;;;;;;;;;13.50;29.00;;;;;;4987355;28;19926;-77
2022/04/18 07:21:10;;;;;;;;;;;14.60;25.20;;;;;;4978244;28;20308;-77
2022/04/18 07:23:37;;;;;;;;;;;13.80;26.20;;;;;;4999752;28;19924;-76
2022/04/18 07:26:04;;;;;;;;;;;13.10;24.80;;;;;;4983313;28;20024;-76
2022/04/18 07:28:32;;;;;;;;;;;13.40;25.80;;;;;;4974745;28;19973;-77
2022/04/18 07:30:58;;;;;;;;;;;13.90;25.30;;;;;;4998020;28;20056;-75
2022/04/18 07:33:25;;;;;;;;;;;14.50;21.90;;;;;;4975259;28;19966;-75
2022/04/18 07:35:52;;;;;;;;;;;14.90;20.40;;;;;;4978740;28;19926;-75
2022/04/18 07:41:05;;;;;;;;;;;14.90;19.50;;;;;;4975831;28;19944;-75
2022/04/18 07:43:35;;;;;;;;;;;15.00;19.70;;;;;;4967886;28;20323;-76
2022/04/18 07:46:02;;;;;;;;;;;14.90;19.20;;;;;;4964422;28;19937;-75
2022/04/18 07:48:29;;;;;;;;;;;15.20;19.10;;;;;;4974339;28;20339;-75
2022/04/18 07:53:40;;;;;;;;;;;15.10;19.00;;;;;;4989636;28;19949;-75
2022/04/18 07:56:06;;;;;;;;;;;15.50;19.40;;;;;;4981586;28;20400;-77
2022/04/18 07:58:34;;;;;;;;;;;15.90;18.50;;;;;;4974015;28;19940;-75
2022/04/18 08:01:01;;;;;;;;;;;15.50;18.60;;;;;;4984808;28;20368;-74
2022/04/18 08:03:28;;;;;;;;;;;15.60;18.80;;;;;;4981463;28;20016;-75
2022/04/18 08:05:55;;;;;;;;;;;15.30;19.70;;;;;;4980308;28;19933;-75
2022/04/18 08:08:22;;;;;;;;;;;15.50;19.10;;;;;;4978271;28;20013;-73
2022/04/18 08:10:48;;;;;;;;;;;16.20;19.00;;;;;;4972986;28;19933;-74
2022/04/18 08:13:15;;;;;;;;;;;15.70;18.20;;;;;;4980186;28;20025;-74
2022/04/18 08:15:43;;;;;;;;;;;16.00;18.60;;;;;;4982498;28;20353;-73
2022/04/18 08:18:10;;;;;;;;;;;16.20;18.20;;;;;;4980469;28;19961;-74
2022/04/18 08:20:37;;;;;;;;;;;16.10;17.50;;;;;;4977659;28;20021;-74
2022/04/18 08:23:03;;;;;;;;;;;15.60;18.70;;;;;;4972112;28;19926;-73
2022/04/18 08:25:30;;;;;;;;;;;16.50;17.80;;;;;;4974976;28;20472;-73
2022/04/18 08:27:57;;;;;;;;;;;16.70;16.30;;;;;;4973590;28;19944;-75
2022/04/18 08:30:24;;;;;;;;;;;16.50;17.60;;;;;;4973116;28;19987;-73
2022/04/18 08:32:52;;;;;;;;;;;16.90;16.60;;;;;;4973112;28;19941;-73
2022/04/18 08:35:19;;;;;;;;;;;18.30;16.70;;;;;;4980878;28;19927;-74
2022/04/18 08:37:46;;;;;;;;;;;18.40;14.60;;;;;;4980398;28;20008;-75
2022/04/18 08:40:13;;;;;;;;;;;18.30;15.70;;;;;;4976112;28;20246;-75
2022/04/18 08:42:41;;;;;;;;;;;19.70;13.30;;;;;;4977117;28;19973;-74
2022/04/18 08:45:08;;;;;;;;;;;19.60;13.10;;;;;;4978529;28;19926;-75
2022/04/18 08:53:07;;;;;;;;;;;19.00;13.50;;;;;;4982708;28;19940;-74
2022/04/18 08:55:34;;;;;;;;;;;19.70;13.60;;;;;;4978213;28;20384;-74
2022/04/18 08:58:01;;;;;;;;;;;21.70;11.50;;;;;;4977783;28;19929;-74
2022/04/18 09:00:27;;;;;;;;;;;22.10;8.20;;;;;;4979630;28;20613;-73
2022/04/18 09:02:54;;;;;;;;;;;22.80;6.80;;;;;;4984340;28;19962;-73
2022/04/18 09:05:23;;;;;;;;;;;23.50;5.80;;;;;;4977552;28;20284;-73
2022/04/18 09:07:58;;;;;;;;;;;23.60;4.90;;;;;;4981012;28;19926;-75
2022/04/18 09:10:24;;;;;;;;;;;23.00;4.30;;;;;;4985797;28;19951;-74
2022/04/18 09:12:51;;;;;;;;;;;21.80;5.40;;;;;;4978278;28;19971;-71
2022/04/18 09:15:29;;;;;;;;;;;21.20;6.40;;;;;;4977257;28;19926;-70
2022/04/18 09:18:06;;;;;;;;;;;23.00;5.00;;;;;;4977592;28;19926;-72
2022/04/18 09:20:42;;;;;;;;;;;24.50;3.20;;;;;;4975859;28;21261;-74
2022/04/18 09:23:19;;;;;;;;;;;25.20;1.20;;;;;;4979833;28;19926;-71
2022/04/18 09:25:45;;;;;;;;;;;24.90;1.00;;;;;;4985047;28;19971;-72
2022/04/18 09:28:13;;;;;;;;;;;24.70;1.00;;;;;;4981955;28;19934;-72
2022/04/18 09:30:40;;;;;;;;;;;24.80;1.00;;;;;;4980889;28;21033;-71
2022/04/18 09:33:08;;;;;;;;;;;25.20;1.00;;;;;;4977880;28;19935;-71
2022/04/18 09:35:35;;;;;;;;;;;25.30;1.00;;;;;;4976651;28;19930;-72
2022/04/18 09:38:06;;;;;;;;;;;24.80;1.00;;;;;;4974334;28;19944;-72
2022/04/18 09:40:32;;;;;;;;;;;24.80;1.00;;;;;;4985231;28;19937;-72
2022/04/18 09:42:59;;;;;;;;;;;24.60;1.00;;;;;;4972820;28;19926;-71
2022/04/18 09:45:26;;;;;;;;;;;25.20;1.00;;;;;;4979982;28;19965;-73
2022/04/18 09:47:56;;;;;;;;;;;25.00;1.00;;;;;;4972247;28;19944;-72
2022/04/18 09:53:18;;;;;;;;;;;25.10;1.00;;;;;;4981510;28;19968;-72
2022/04/18 09:55:47;;;;;;;;;;;24.90;1.00;;;;;;4979227;28;20461;-73
2022/04/18 09:58:14;;;;;;;;;;;24.60;1.00;;;;;;4973940;28;19932;-72
2022/04/18 10:00:41;;;;;;;;;;;24.40;1.00;;;;;;4981444;28;20300;-71
2022/04/18 10:03:10;;;;;;;;;;;23.30;1.00;;;;;;4971794;28;19930;-72
2022/04/18 10:05:38;;;;;;;;;;;21.70;1.00;;;;;;4974969;28;19935;-72
2022/04/18 10:08:05;;;;;;;;;;;20.40;1.00;;;;;;4980403;28;20346;-73
2022/04/18 10:10:34;;;;;;;;;;;19.90;1.00;;;;;;4976439;28;19926;-72
2022/04/18 10:13:01;;;;;;;;;;;19.60;1.00;;;;;;4966090;28;20021;-72
2022/04/18 10:15:37;;;;;;;;;;;19.30;1.00;;;;;;4992277;28;20312;-72
2022/04/18 10:18:05;;;;;;;;;;;19.00;1.00;;;;;;4973985;28;19937;-71
2022/04/18 10:20:41;;;;;;;;;;;18.90;1.00;;;;;;4969811;28;19933;-71
2022/04/18 10:23:15;;;;;;;;;;;18.50;1.00;;;;;;4998113;28;19928;-71
2022/04/18 10:26:07;;;;;;;;;;;18.60;1.00;;;;;;4987948;28;20012;-72
2022/04/18 10:28:35;;;;;;;;;;;18.60;1.00;;;;;;5006705;28;19926;-70
2022/04/18 10:31:05;;;;;;;;;;;18.60;1.00;;;;;;4978966;28;20001;-71
2022/04/18 10:33:33;;;;;;;;;;;18.70;1.00;;;;;;4980961;28;19933;-72
2022/04/18 10:36:02;;;;;;;;;;;18.50;1.00;;;;;;4974964;28;19961;-72
2022/04/18 10:38:29;;;;;;;;;;;18.40;1.00;;;;;;4980154;28;19966;-72
2022/04/18 10:41:14;;;;;;;;;;;18.40;1.00;;;;;;4993850;28;20162;-72
2022/04/18 10:43:58;;;;;;;;;;;18.60;1.00;;;;;;4992891;28;19940;-71
2022/04/18 10:46:26;;;;;;;;;;;18.90;1.00;;;;;;4977409;28;20415;-72
2022/04/18 10:48:55;;;;;;;;;;;19.10;1.00;;;;;;4974093;28;20364;-72
2022/04/18 10:51:28;;;;;;;;;;;19.10;1.00;;;;;;4975811;28;19926;-73
2022/04/18 10:54:04;;;;;;;;;;;19.00;1.00;;;;;;4975626;28;19929;-72
2022/04/18 10:56:48;;;;;;;;;;;19.10;1.00;;;;;;4971569;28;20029;-72
2022/04/18 10:59:15;;;;;;;;;;;18.70;1.00;;;;;;4968602;28;20024;-72
2022/04/18 11:01:43;;;;;;;;;;;18.70;1.00;;;;;;4983555;28;19934;-73
2022/04/18 11:04:11;;;;;;;;;;;18.90;1.00;;;;;;4986988;28;19926;-73
2022/04/18 11:06:48;;;;;;;;;;;18.90;1.00;;;;;;4986215;28;19971;-72
2022/04/18 11:09:16;;;;;;;;;;;18.90;1.00;;;;;;4987770;28;20012;-73
2022/04/18 11:11:44;;;;;;;;;;;18.80;1.00;;;;;;4989616;28;19926;-72
2022/04/18 11:14:15;;;;;;;;;;;18.70;1.00;;;;;;4982021;28;20013;-71
2022/04/18 11:16:50;;;;;;;;;;;18.50;1.00;;;;;;4973555;28;19926;-72
2022/04/18 11:19:18;;;;;;;;;;;18.60;1.00;;;;;;4985840;28;20012;-73
2022/04/18 11:22:12;;;;;;;;;;;18.60;1.00;;;;;;4975773;28;19926;-73
2022/04/18 11:24:40;;;;;;;;;;;18.80;1.00;;;;;;4999322;28;19926;-73
2022/04/18 11:27:08;;;;;;;;;;;18.90;1.00;;;;;;4977653;28;19930;-73
2022/04/18 11:29:35;;;;;;;;;;;18.40;1.00;;;;;;4973962;28;20348;-72
2022/04/18 11:32:04;;;;;;;;;;;18.20;1.00;;;;;;4972933;28;19926;-72
2022/04/18 11:34:31;;;;;;;;;;;18.40;1.00;;;;;;4986616;28;19926;-74
2022/04/18 11:36:59;;;;;;;;;;;18.80;1.00;;;;;;4973401;28;19930;-72
2022/04/18 11:39:40;;;;;;;;;;;19.10;1.00;;;;;;4986347;28;19933;-72
2022/04/18 11:42:07;;;;;;;;;;;19.30;1.00;;;;;;4987748;28;19925;-74
2022/04/18 11:44:42;;;;;;;;;;;19.40;1.00;;;;;;4977094;28;19926;-73
2022/04/18 11:47:11;;;;;;;;;;;19.50;1.00;;;;;;4982222;28;19926;-72
2022/04/18 11:49:38;;;;;;;;;;;19.20;1.00;;;;;;4988008;28;19962;-72
2022/04/18 11:52:05;;;;;;;;;;;18.70;1.00;;;;;;4983124;28;19934;-72
2022/04/18 11:54:32;;;;;;;;;;;18.20;1.00;;;;;;4979918;28;20312;-73
2022/04/18 11:57:00;;;;;;;;;;;18.60;1.00;;;;;;4971979;28;19926;-72
2022/04/18 11:59:27;;;;;;;;;;;18.30;1.00;;;;;;4979773;28;19925;-72
2022/04/18 12:07:23;;;;;;;;;;;19.40;1.00;;;;;;4971889;28;20131;-73
2022/04/18 12:09:50;;;;;;;;;;;19.80;1.00;;;;;;4986119;28;20017;-72
2022/04/18 12:12:26;;;;;;;;;;;19.20;1.00;;;;;;4987132;28;19965;-73
2022/04/18 12:14:52;;;;;;;;;;;19.20;1.00;;;;;;4971266;28;19926;-72
2022/04/18 12:17:19;;;;;;;;;;;19.50;1.00;;;;;;4987247;28;19933;-73
2022/04/18 12:19:47;;;;;;;;;;;19.70;1.00;;;;;;4987812;28;20041;-72
2022/04/18 12:22:19;;;;;;;;;;;19.50;1.00;;;;;;4987604;28;19925;-72
2022/04/18 12:24:46;;;;;;;;;;;19.40;1.00;;;;;;4969721;28;20400;-71
2022/04/18 12:27:13;;;;;;;;;;;19.60;1.00;;;;;;4987032;28;19926;-72
2022/04/18 12:29:40;;;;;;;;;;;19.70;1.00;;;;;;4990415;28;19969;-72
2022/04/18 12:32:23;;;;;;;;;;;19.90;1.00;;;;;;4990240;28;20426;-72
2022/04/18 12:34:51;;;;;;;;;;;19.50;1.00;;;;;;4990333;28;19925;-71
2022/04/18 12:37:18;;;;;;;;;;;18.70;1.00;;;;;;4990846;28;19971;-71
2022/04/18 12:39:45;;;;;;;;;;;19.30;1.00;;;;;;4989264;28;19980;-71
2022/04/18 12:42:13;;;;;;;;;;;19.70;1.00;;;;;;4990919;28;19968;-73
2022/04/18 12:44:40;;;;;;;;;;;19.60;1.00;;;;;;4973028;28;19930;-72
2022/04/18 12:47:16;;;;;;;;;;;19.30;1.00;;;;;;4979312;28;20269;-73
2022/04/18 12:49:58;;;;;;;;;;;19.00;1.00;;;;;;4984297;28;19932;-72
2022/04/18 12:52:26;;;;;;;;;;;19.30;1.00;;;;;;4989995;28;20298;-72
2022/04/18 12:54:53;;;;;;;;;;;19.50;1.00;;;;;;4991070;28;19926;-72
2022/04/18 12:57:20;;;;;;;;;;;19.80;1.00;;;;;;4989559;28;19926;-73
2022/04/18 12:59:48;;;;;;;;;;;19.90;1.00;;;;;;4986902;28;19926;-73
2022/04/18 13:02:14;;;;;;;;;;;20.10;1.00;;;;;;4991671;28;20030;-72
2022/04/18 13:04:41;;;;;;;;;;;20.30;1.00;;;;;;4990894;28;20353;-72
2022/04/18 13:07:10;;;;;;;;;;;20.00;1.00;;;;;;4982459;28;20392;-73
2022/04/18 13:09:38;;;;;;;;;;;19.40;1.00;;;;;;4987891;28;20419;-72
2022/04/18 13:12:05;;;;;;;;;;;19.30;1.00;;;;;;4972315;28;19926;-72
2022/04/18 13:14:32;;;;;;;;;;;19.70;1.00;;;;;;4979236;28;19927;-72
2022/04/18 13:17:09;;;;;;;;;;;19.70;1.00;;;;;;4972710;28;19926;-72
2022/04/18 13:19:36;;;;;;;;;;;19.80;1.00;;;;;;4974973;28;20379;-72
2022/04/18 13:22:03;;;;;;;;;;;20.10;1.00;;;;;;4990473;28;19926;-72
2022/04/18 13:24:30;;;;;;;;;;;20.30;1.00;;;;;;4989260;28;20020;-74
2022/04/18 13:26:58;;;;;;;;;;;19.40;1.00;;;;;;4990575;28;20016;-72
2022/04/18 13:29:25;;;;;;;;;;;19.60;1.00;;;;;;4985704;28;19932;-73
2022/04/18 13:31:52;;;;;;;;;;;19.40;1.00;;;;;;4988506;28;19930;-73
2022/04/18 13:34:18;;;;;;;;;;;19.00;1.00;;;;;;4990492;28;20332;-72
2022/04/18 13:36:51;;;;;;;;;;;19.20;1.00;;;;;;4987414;28;19926;-72
2022/04/18 13:39:18;;;;;;;;;;;19.70;1.00;;;;;;4972615;28;19987;-72
2022/04/18 13:41:45;;;;;;;;;;;20.10;1.00;;;;;;4986518;28;19926;-72
2022/04/18 13:44:13;;;;;;;;;;;20.30;1.00;;;;;;4988956;28;19926;-72
2022/04/18 13:46:40;;;;;;;;;;;19.80;1.00;;;;;;4989315;28;19925;-72
2022/04/18 13:49:09;;;;;;;;;;;20.00;1.00;;;;;;4988841;28;19930;-72
2022/04/18 13:51:36;;;;;;;;;;;20.20;1.00;;;;;;4989103;28;19934;-72
2022/04/18 13:54:04;;;;;;;;;;;20.00;1.00;;;;;;4987019;28;19926;-72
2022/04/18 13:56:32;;;;;;;;;;;20.00;1.00;;;;;;4977452;28;19926;-72
2022/04/18 13:58:59;;;;;;;;;;;20.00;1.00;;;;;;4986714;28;19979;-72
2022/04/18 14:01:28;;;;;;;;;;;20.10;1.00;;;;;;4988195;28;20355;-72
2022/04/18 14:03:56;;;;;;;;;;;20.00;1.00;;;;;;4988883;28;19933;-72
2022/04/18 14:06:26;;;;;;;;;;;20.20;1.00;;;;;;4980304;28;20025;-72
2022/04/18 14:08:55;;;;;;;;;;;20.50;1.00;;;;;;4977263;28;19934;-72
2022/04/18 14:11:22;;;;;;;;;;;20.00;1.00;;;;;;4973086;28;19940;-73
2022/04/18 14:13:49;;;;;;;;;;;19.40;1.00;;;;;;4979884;28;19925;-73
2022/04/18 14:21:46;;;;;;;;;;;19.80;1.00;;;;;;4978207;28;19933;-73
2022/04/18 14:24:12;;;;;;;;;;;20.20;1.00;;;;;;4982364;28;19926;-72
2022/04/18 14:26:40;;;;;;;;;;;20.50;1.00;;;;;;4977149;28;19934;-72
2022/04/18 14:29:08;;;;;;;;;;;20.80;1.00;;;;;;4982150;28;19930;-73
2022/04/18 14:31:35;;;;;;;;;;;20.30;1.00;;;;;;4971841;28;19953;-72
2022/04/18 14:34:03;;;;;;;;;;;20.20;1.00;;;;;;4976233;28;19932;-73
2022/04/18 14:36:30;;;;;;;;;;;20.00;1.00;;;;;;4984378;28;20029;-72
2022/04/18 14:38:57;;;;;;;;;;;19.90;1.00;;;;;;4991293;28;19930;-72
2022/04/18 14:41:23;;;;;;;;;;;20.00;1.00;;;;;;4995906;28;19933;-74
2022/04/18 14:43:50;;;;;;;;;;;19.80;1.00;;;;;;4980801;28;19964;-72
2022/04/18 14:46:18;;;;;;;;;;;19.90;1.00;;;;;;5046923;28;21320;-71
2022/04/18 14:48:44;;;;;;;;;;;20.20;1.00;;;;;;4979679;28;20005;-72
2022/04/18 14:51:12;;;;;;;;;;;20.10;1.00;;;;;;4984964;28;20388;-71
2022/04/18 14:53:44;;;;;;;;;;;19.60;1.00;;;;;;4985514;23;20017;-73
2022/04/18 14:56:20;;;;;;;;;;;19.30;1.00;;;;;;4980694;23;19937;-72
2022/04/18 14:59:03;;;;;;;;;;;19.60;1.00;;;;;;4957129;28;19934;-72
2022/04/18 15:01:31;;;;;;;;;;;19.70;1.00;;;;;;4958481;28;19940;-73
2022/04/18 15:03:58;;;;;;;;;;;19.70;1.00;;;;;;4958504;28;19934;-73
2022/04/18 15:06:26;;;;;;;;;;;19.70;1.00;;;;;;4955726;28;19981;-73
2022/04/18 15:08:53;;;;;;;;;;;19.50;1.00;;;;;;4954569;28;19969;-72
2022/04/18 15:11:21;;;;;;;;;;;19.70;1.00;;;;;;4963185;28;19948;-74
2022/04/18 15:13:47;;;;;;;;;;;19.80;1.00;;;;;;4954463;28;19934;-74
2022/04/18 15:16:14;;;;;;;;;;;20.10;1.00;;;;;;4958036;28;19930;-73